Time;durP1;ratioP1;P1;durP2;ratioP2;P2;SDS_P1;SDS_P2;PMS_P1;PMS_P2;Temp;Humidity;BMP_temperature;BMP_pressure;BME280_temperature;BME280_humidity;BME280_pressure;Samples;Min_cycle;Max_cycle;Signal;HPM_P1;HPM_P2
2021/06/27 00:00:18;;;;;;;6.00;4.20;;;;;;;;;;5091956;28;20028;-66
2021/06/27 00:02:44;;;;;;;9.35;4.50;;;;;;;;;;5092493;28;20024;-67
2021/06/27 00:05:11;;;;;;;9.40;4.10;;;;;;;;;;5092396;28;20051;-66
2021/06/27 00:07:38;;;;;;;27.13;4.70;;;;;;;;;;5090983;28;20555;-68
2021/06/27 00:10:06;;;;;;;9.38;4.32;;;;;;;;;;5092001;28;20157;-67
2021/06/27 00:12:32;;;;;;;8.63;4.00;;;;;;;;;;5092059;28;20020;-68
2021/06/27 00:14:58;;;;;;;7.22;4.30;;;;;;;;;;5091738;28;20385;-68
2021/06/27 00:17:24;;;;;;;6.22;4.22;;;;;;;;;;5089578;28;20365;-67
2021/06/27 00:19:50;;;;;;;9.27;4.30;;;;;;;;;;5091702;28;20020;-66
2021/06/27 00:22:16;;;;;;;6.65;4.18;;;;;;;;;;5091492;28;20519;-68
2021/06/27 00:24:44;;;;;;;9.25;4.43;;;;;;;;;;5092427;28;20439;-67
2021/06/27 00:27:10;;;;;;;9.63;4.90;;;;;;;;;;5092333;28;20024;-68
2021/06/27 00:29:36;;;;;;;8.85;4.70;;;;;;;;;;5092073;28;20093;-69
2021/06/27 00:32:03;;;;;;;5.57;4.25;;;;;;;;;;5092108;28;20047;-68
2021/06/27 00:34:29;;;;;;;9.23;4.50;;;;;;;;;;5090762;28;20020;-67
2021/06/27 00:36:55;;;;;;;7.75;4.00;;;;;;;;;;5076384;28;20016;-67
2021/06/27 00:39:21;;;;;;;6.03;4.22;;;;;;;;;;5071912;28;20108;-67
2021/06/27 00:41:47;;;;;;;7.00;4.38;;;;;;;;;;5072297;28;20464;-67
2021/06/27 00:44:13;;;;;;;8.55;4.70;;;;;;;;;;5071802;28;20032;-67
2021/06/27 00:46:39;;;;;;;7.45;4.28;;;;;;;;;;5071776;28;20542;-67
2021/06/27 00:49:05;;;;;;;6.15;4.22;;;;;;;;;;5071832;28;20021;-68
2021/06/27 00:51:31;;;;;;;5.75;4.15;;;;;;;;;;5071849;28;20029;-68
2021/06/27 00:53:57;;;;;;;7.75;4.40;;;;;;;;;;5071740;28;20021;-69
2021/06/27 00:56:23;;;;;;;9.00;4.47;;;;;;;;;;5071847;28;20024;-67
2021/06/27 00:58:50;;;;;;;7.40;4.53;;;;;;;;;;5071611;28;20024;-68
2021/06/27 01:01:16;;;;;;;9.50;5.20;;;;;;;;;;5071442;28;20063;-69
2021/06/27 01:03:42;;;;;;;6.57;4.38;;;;;;;;;;5070468;28;20346;-65
2021/06/27 01:06:08;;;;;;;8.43;4.60;;;;;;;;;;5071742;28;20032;-66
2021/06/27 01:08:34;;;;;;;9.55;4.50;;;;;;;;;;5081358;28;20024;-66
2021/06/27 01:11:00;;;;;;;12.98;4.72;;;;;;;;;;5090591;28;20024;-67
2021/06/27 01:13:27;;;;;;;9.88;4.72;;;;;;;;;;5091774;28;20066;-66
2021/06/27 01:15:54;;;;;;;9.23;4.55;;;;;;;;;;5092028;28;20009;-70
2021/06/27 01:18:20;;;;;;;9.85;5.03;;;;;;;;;;5091935;28;20024;-70
2021/06/27 01:20:47;;;;;;;8.45;4.97;;;;;;;;;;5091554;28;20039;-70
2021/06/27 01:23:15;;;;;;;10.30;5.50;;;;;;;;;;5091691;28;20032;-70
2021/06/27 01:25:42;;;;;;;12.20;5.80;;;;;;;;;;5090205;28;20032;-70
2021/06/27 01:28:09;;;;;;;7.70;4.80;;;;;;;;;;5091419;28;20028;-71
2021/06/27 01:30:35;;;;;;;8.15;4.75;;;;;;;;;;5091550;28;20024;-71
2021/06/27 01:33:06;;;;;;;8.13;4.07;;;;;;;;;;5090015;28;20035;-70
2021/06/27 01:35:32;;;;;;;8.18;5.15;;;;;;;;;;5094281;28;20024;-70
2021/06/27 01:37:58;;;;;;;7.40;4.72;;;;;;;;;;5095313;28;20024;-70
2021/06/27 01:40:27;;;;;;;7.70;4.90;;;;;;;;;;5095328;28;20012;-70
2021/06/27 01:42:54;;;;;;;6.32;4.57;;;;;;;;;;5093829;28;20032;-70
2021/06/27 01:45:24;;;;;;;5.72;4.35;;;;;;;;;;5094484;28;20016;-70
2021/06/27 01:47:54;;;;;;;6.70;4.70;;;;;;;;;;5094750;28;20020;-70
2021/06/27 01:50:21;;;;;;;6.80;4.93;;;;;;;;;;5093743;28;20020;-70
2021/06/27 01:52:47;;;;;;;6.47;5.10;;;;;;;;;;5094943;28;20498;-70
2021/06/27 01:55:13;;;;;;;6.22;4.88;;;;;;;;;;5095064;28;20024;-70
2021/06/27 01:57:39;;;;;;;8.40;5.10;;;;;;;;;;5093827;28;20020;-70
2021/06/27 02:00:05;;;;;;;6.20;4.75;;;;;;;;;;5094938;28;20153;-70
2021/06/27 02:02:31;;;;;;;17.70;5.18;;;;;;;;;;5094564;28;20016;-70
2021/06/27 02:04:57;;;;;;;27.85;5.97;;;;;;;;;;5095059;28;20028;-70
2021/06/27 02:07:24;;;;;;;15.40;5.13;;;;;;;;;;5093849;28;20115;-69
2021/06/27 02:09:50;;;;;;;27.75;6.00;;;;;;;;;;5094721;28;20017;-70
2021/06/27 02:12:16;;;;;;;19.17;6.00;;;;;;;;;;5095035;28;20618;-69
2021/06/27 02:14:42;;;;;;;12.52;5.00;;;;;;;;;;5094878;28;20034;-70
2021/06/27 02:17:11;;;;;;;12.55;5.80;;;;;;;;;;5081198;28;20020;-71
2021/06/27 02:19:37;;;;;;;8.13;4.78;;;;;;;;;;5074468;28;20100;-71
2021/06/27 02:22:04;;;;;;;7.68;5.55;;;;;;;;;;5072989;28;20024;-70
2021/06/27 02:24:32;;;;;;;10.68;5.43;;;;;;;;;;5074403;28;20566;-69
2021/06/27 02:26:58;;;;;;;11.18;5.80;;;;;;;;;;5073123;28;20102;-69
2021/06/27 02:29:24;;;;;;;11.82;4.97;;;;;;;;;;5074037;28;20045;-70
2021/06/27 02:31:51;;;;;;;13.57;5.80;;;;;;;;;;5074043;28;20059;-69
2021/06/27 02:34:18;;;;;;;10.38;5.57;;;;;;;;;;5074156;28;20544;-69
2021/06/27 02:36:44;;;;;;;7.88;5.47;;;;;;;;;;5074043;28;20039;-69
2021/06/27 02:39:10;;;;;;;7.22;5.35;;;;;;;;;;5074324;28;20028;-70
2021/06/27 02:41:36;;;;;;;9.05;5.57;;;;;;;;;;5072752;28;20028;-69
2021/06/27 02:44:03;;;;;;;8.25;5.03;;;;;;;;;;5074113;28;20025;-69
2021/06/27 02:46:30;;;;;;;13.18;5.55;;;;;;;;;;5073207;28;20044;-69
2021/06/27 02:48:56;;;;;;;7.13;4.68;;;;;;;;;;5073803;28;20028;-70
2021/06/27 02:51:22;;;;;;;10.57;5.50;;;;;;;;;;5074020;28;20108;-70
2021/06/27 02:53:48;;;;;;;9.63;5.57;;;;;;;;;;5074035;28;20111;-70
2021/06/27 02:56:14;;;;;;;6.13;4.75;;;;;;;;;;5073538;28;20045;-69
2021/06/27 02:58:46;;;;;;;11.57;5.07;;;;;;;;;;5073550;28;20131;-70
2021/06/27 03:01:12;;;;;;;7.83;4.93;;;;;;;;;;5072461;28;20021;-70
2021/06/27 03:03:39;;;;;;;7.68;5.32;;;;;;;;;;5085162;28;20028;-70
2021/06/27 03:06:05;;;;;;;9.63;5.50;;;;;;;;;;5092060;28;20067;-70
2021/06/27 03:08:31;;;;;;;11.98;5.90;;;;;;;;;;5093179;28;20099;-70
2021/06/27 03:10:58;;;;;;;9.75;5.38;;;;;;;;;;5093616;28;20503;-70
2021/06/27 03:13:25;;;;;;;10.95;5.30;;;;;;;;;;5092348;28;20048;-69
2021/06/27 03:15:51;;;;;;;8.82;5.35;;;;;;;;;;5093791;28;20620;-70
2021/06/27 03:18:17;;;;;;;8.90;5.45;;;;;;;;;;5092561;28;20105;-70
2021/06/27 03:20:43;;;;;;;7.47;5.20;;;;;;;;;;5093438;28;20051;-70
2021/06/27 03:23:10;;;;;;;7.97;4.95;;;;;;;;;;5093356;28;20128;-70
2021/06/27 03:25:36;;;;;;;7.32;4.45;;;;;;;;;;5093307;28;20384;-69
2021/06/27 03:28:03;;;;;;;7.30;5.30;;;;;;;;;;5093343;28;20519;-70
2021/06/27 03:30:29;;;;;;;7.25;5.18;;;;;;;;;;5091914;28;20055;-70
2021/06/27 03:32:55;;;;;;;7.65;5.30;;;;;;;;;;5091982;28;20024;-69
2021/06/27 03:35:21;;;;;;;7.70;4.78;;;;;;;;;;5093334;28;20027;-69
2021/06/27 03:40:20;;;;;;;21.98;6.82;;;;;;;;;;5093368;28;20366;-69
2021/06/27 03:42:48;;;;;;;9.23;5.35;;;;;;;;;;5091788;28;20419;-69
2021/06/27 03:45:14;;;;;;;7.95;5.60;;;;;;;;;;5093029;28;20040;-69
2021/06/27 03:47:41;;;;;;;22.08;5.47;;;;;;;;;;5092842;28;20484;-69
2021/06/27 03:50:07;;;;;;;8.10;5.20;;;;;;;;;;5093049;28;20296;-69
2021/06/27 03:52:34;;;;;;;10.10;5.50;;;;;;;;;;5093012;28;20051;-69
2021/06/27 03:55:00;;;;;;;10.73;5.20;;;;;;;;;;5092921;28;20499;-70
2021/06/27 03:57:26;;;;;;;10.82;5.28;;;;;;;;;;5092083;28;20567;-69
2021/06/27 03:59:52;;;;;;;8.38;5.22;;;;;;;;;;5093151;28;20405;-70
2021/06/27 04:02:18;;;;;;;13.70;5.47;;;;;;;;;;5092609;28;20013;-69
2021/06/27 04:04:44;;;;;;;9.65;5.85;;;;;;;;;;5088435;28;20028;-70
2021/06/27 04:07:10;;;;;;;9.40;5.18;;;;;;;;;;5092491;28;20058;-70
2021/06/27 04:09:36;;;;;;;10.38;5.38;;;;;;;;;;5091026;28;20020;-70
2021/06/27 04:12:02;;;;;;;9.50;5.30;;;;;;;;;;5092722;28;20027;-70
2021/06/27 04:14:28;;;;;;;9.60;5.30;;;;;;;;;;5092585;28;20008;-70
2021/06/27 04:16:54;;;;;;;8.88;5.10;;;;;;;;;;5090179;28;20035;-70
2021/06/27 04:19:20;;;;;;;10.50;5.18;;;;;;;;;;5085690;28;20062;-70
2021/06/27 04:21:46;;;;;;;9.00;5.22;;;;;;;;;;5092149;28;20028;-70
2021/06/27 04:24:12;;;;;;;7.85;5.20;;;;;;;;;;5091787;28;20039;-70
2021/06/27 04:26:38;;;;;;;7.25;5.22;;;;;;;;;;5091028;28;20028;-69
2021/06/27 04:29:05;;;;;;;12.75;5.93;;;;;;;;;;5092433;28;20097;-69
2021/06/27 04:31:32;;;;;;;8.57;5.00;;;;;;;;;;5090497;28;20055;-70
2021/06/27 04:33:58;;;;;;;8.75;4.63;;;;;;;;;;5092029;28;20530;-69
2021/06/27 04:36:24;;;;;;;8.00;4.75;;;;;;;;;;5089078;28;20102;-69
2021/06/27 04:38:50;;;;;;;9.90;4.03;;;;;;;;;;5092025;28;20073;-69
2021/06/27 04:41:16;;;;;;;11.38;4.47;;;;;;;;;;5091728;28;20024;-69
2021/06/27 04:43:42;;;;;;;7.43;4.00;;;;;;;;;;5092084;28;20069;-68
2021/06/27 04:46:08;;;;;;;7.47;4.00;;;;;;;;;;5091811;28;20075;-69
2021/06/27 04:48:34;;;;;;;6.53;4.03;;;;;;;;;;5092178;28;20032;-70
2021/06/27 04:51:00;;;;;;;8.35;4.22;;;;;;;;;;5088669;28;20020;-71
2021/06/27 04:53:26;;;;;;;5.57;3.30;;;;;;;;;;5092045;28;20031;-71
2021/06/27 04:55:52;;;;;;;6.05;3.70;;;;;;;;;;5092234;28;20020;-71
2021/06/27 04:58:18;;;;;;;6.30;4.32;;;;;;;;;;5092188;28;20027;-71
2021/06/27 05:00:45;;;;;;;10.00;4.03;;;;;;;;;;5092036;28;20021;-70
2021/06/27 05:03:11;;;;;;;7.70;4.10;;;;;;;;;;5092068;28;20020;-70
2021/06/27 05:05:37;;;;;;;7.18;4.25;;;;;;;;;;5091880;28;20411;-69
2021/06/27 05:08:03;;;;;;;6.93;3.47;;;;;;;;;;5092431;28;20054;-69
2021/06/27 05:10:29;;;;;;;7.53;3.72;;;;;;;;;;5096042;28;20039;-69
2021/06/27 05:12:55;;;;;;;6.72;3.65;;;;;;;;;;5095767;28;20380;-69
2021/06/27 05:15:21;;;;;;;7.38;4.40;;;;;;;;;;5094777;28;20016;-69
2021/06/27 05:17:48;;;;;;;10.07;4.32;;;;;;;;;;5095916;28;20031;-69
2021/06/27 05:20:14;;;;;;;6.35;3.88;;;;;;;;;;5095820;28;20078;-70
2021/06/27 05:22:40;;;;;;;6.28;3.92;;;;;;;;;;5094400;28;20062;-70
2021/06/27 05:25:07;;;;;;;12.90;3.95;;;;;;;;;;5095692;28;20032;-70
2021/06/27 05:27:33;;;;;;;7.75;3.75;;;;;;;;;;5094604;28;20458;-70
2021/06/27 05:29:59;;;;;;;5.70;3.70;;;;;;;;;;5095634;28;20016;-70
2021/06/27 05:32:25;;;;;;;7.90;3.63;;;;;;;;;;5095728;28;20150;-70
2021/06/27 05:34:51;;;;;;;7.97;3.88;;;;;;;;;;5095573;28;20016;-70
2021/06/27 05:37:17;;;;;;;5.45;3.35;;;;;;;;;;5095651;28;20043;-70
2021/06/27 05:39:43;;;;;;;9.18;3.50;;;;;;;;;;5095498;28;20027;-70
2021/06/27 05:42:10;;;;;;;14.65;4.55;;;;;;;;;;5093874;28;20017;-70
2021/06/27 05:44:36;;;;;;;9.50;4.05;;;;;;;;;;5094024;28;20111;-69
2021/06/27 05:47:02;;;;;;;6.43;3.85;;;;;;;;;;5093831;28;20484;-69
2021/06/27 05:49:28;;;;;;;7.22;3.58;;;;;;;;;;5095396;28;20016;-69
2021/06/27 05:51:54;;;;;;;7.43;3.50;;;;;;;;;;5095319;28;20094;-70
2021/06/27 05:54:20;;;;;;;6.30;3.63;;;;;;;;;;5095353;28;20028;-69
2021/06/27 05:56:46;;;;;;;6.88;3.45;;;;;;;;;;5095248;28;20081;-69
2021/06/27 05:59:12;;;;;;;6.68;3.92;;;;;;;;;;5095286;28;20020;-70
2021/06/27 06:01:38;;;;;;;7.72;3.30;;;;;;;;;;5095149;28;20084;-69
2021/06/27 06:04:04;;;;;;;7.10;3.83;;;;;;;;;;5095276;28;20031;-69
2021/06/27 06:06:30;;;;;;;8.57;3.45;;;;;;;;;;5094988;28;20028;-69
2021/06/27 06:08:56;;;;;;;7.60;3.80;;;;;;;;;;5094955;28;20221;-69
2021/06/27 06:11:25;;;;;;;8.35;3.30;;;;;;;;;;5094889;28;20012;-69
2021/06/27 06:13:51;;;;;;;6.70;3.50;;;;;;;;;;5095019;28;20153;-70
2021/06/27 06:16:17;;;;;;;7.75;3.72;;;;;;;;;;5093164;28;20372;-70
2021/06/27 06:18:44;;;;;;;11.35;3.65;;;;;;;;;;5094825;28;20035;-70
2021/06/27 06:21:11;;;;;;;6.85;3.20;;;;;;;;;;5093846;28;20473;-69
2021/06/27 06:23:37;;;;;;;7.07;3.50;;;;;;;;;;5094770;28;20031;-70
2021/06/27 06:26:03;;;;;;;6.80;3.17;;;;;;;;;;5094351;28;20043;-70
2021/06/27 06:28:29;;;;;;;7.10;3.47;;;;;;;;;;5093986;28;20024;-70
2021/06/27 06:30:55;;;;;;;7.68;3.80;;;;;;;;;;5091869;28;20044;-69
2021/06/27 06:33:21;;;;;;;5.00;2.97;;;;;;;;;;5092993;28;20394;-70
2021/06/27 06:35:47;;;;;;;6.93;3.22;;;;;;;;;;5094603;28;20195;-70
2021/06/27 06:38:13;;;;;;;8.10;3.38;;;;;;;;;;5094529;28;20470;-70
2021/06/27 06:40:40;;;;;;;7.93;3.55;;;;;;;;;;5094351;28;20048;-70
2021/06/27 06:43:06;;;;;;;5.78;3.45;;;;;;;;;;5094289;28;20499;-70
2021/06/27 06:45:32;;;;;;;7.60;3.50;;;;;;;;;;5094202;28;20025;-70
2021/06/27 06:47:59;;;;;;;5.32;3.15;;;;;;;;;;5094288;28;20042;-70
2021/06/27 06:50:25;;;;;;;7.15;3.15;;;;;;;;;;5093927;28;20465;-70
2021/06/27 06:52:51;;;;;;;5.28;3.03;;;;;;;;;;5094009;28;20043;-70
2021/06/27 06:55:17;;;;;;;6.60;3.20;;;;;;;;;;5093940;28;20091;-70
2021/06/27 06:57:44;;;;;;;7.38;3.42;;;;;;;;;;5094099;28;20091;-70
2021/06/27 07:00:11;;;;;;;5.05;3.13;;;;;;;;;;5092827;28;20020;-71
2021/06/27 07:02:37;;;;;;;11.98;3.63;;;;;;;;;;5087819;28;20029;-70
2021/06/27 07:05:04;;;;;;;8.10;3.47;;;;;;;;;;5085013;28;20028;-69
2021/06/27 07:07:30;;;;;;;7.85;3.20;;;;;;;;;;5093251;28;20036;-70
2021/06/27 07:09:56;;;;;;;6.55;3.53;;;;;;;;;;5093290;28;20115;-70
2021/06/27 07:12:22;;;;;;;7.28;3.35;;;;;;;;;;5089854;28;20716;-70
2021/06/27 07:14:48;;;;;;;6.90;3.38;;;;;;;;;;5092969;28;20016;-70
2021/06/27 07:17:14;;;;;;;8.82;3.70;;;;;;;;;;5092910;28;20016;-71
2021/06/27 07:19:41;;;;;;;5.88;3.53;;;;;;;;;;5092799;28;20020;-70
2021/06/27 07:22:07;;;;;;;6.05;3.20;;;;;;;;;;5092894;28;20016;-70
2021/06/27 07:24:33;;;;;;;5.55;3.28;;;;;;;;;;5093095;28;20099;-70
2021/06/27 07:26:59;;;;;;;6.38;3.47;;;;;;;;;;5092780;28;20035;-71
2021/06/27 07:29:25;;;;;;;7.10;3.45;;;;;;;;;;5091545;28;20384;-70
2021/06/27 07:31:53;;;;;;;6.53;3.45;;;;;;;;;;5092644;28;20056;-69
2021/06/27 07:34:19;;;;;;;7.00;3.35;;;;;;;;;;5092809;28;20373;-69
2021/06/27 07:36:45;;;;;;;12.75;4.28;;;;;;;;;;5090766;28;20047;-69
2021/06/27 07:39:12;;;;;;;5.85;3.22;;;;;;;;;;5092560;28;20020;-69
2021/06/27 07:41:38;;;;;;;7.60;3.30;;;;;;;;;;5091280;28;20032;-70
2021/06/27 07:44:04;;;;;;;5.68;3.20;;;;;;;;;;5092471;28;20044;-70
2021/06/27 07:46:30;;;;;;;6.13;3.30;;;;;;;;;;5090788;28;20050;-70
2021/06/27 07:48:56;;;;;;;10.57;3.83;;;;;;;;;;5092468;28;20016;-69
2021/06/27 07:51:22;;;;;;;10.05;4.13;;;;;;;;;;5092161;28;20030;-70
2021/06/27 07:53:49;;;;;;;7.93;3.85;;;;;;;;;;5092888;28;20460;-70
2021/06/27 07:56:15;;;;;;;9.00;3.60;;;;;;;;;;5094693;28;20054;-70
2021/06/27 07:58:41;;;;;;;5.90;3.28;;;;;;;;;;5091366;28;20028;-70
2021/06/27 08:01:07;;;;;;;7.35;3.60;;;;;;;;;;5092732;28;20016;-70
2021/06/27 08:03:33;;;;;;;9.35;3.42;;;;;;;;;;5091563;28;20028;-70
2021/06/27 08:05:59;;;;;;;6.72;2.72;;;;;;;;;;5092517;28;20028;-71
2021/06/27 08:08:25;;;;;;;7.57;3.35;;;;;;;;;;5092760;28;20032;-69
2021/06/27 08:10:51;;;;;;;8.95;3.50;;;;;;;;;;5091342;28;20020;-67
2021/06/27 08:13:17;;;;;;;21.33;3.03;;;;;;;;;;5086281;28;20028;-68
2021/06/27 08:15:43;;;;;;;18.90;3.58;;;;;;;;;;5092424;28;20028;-67
2021/06/27 08:18:09;;;;;;;27.92;4.22;;;;;;;;;;5092426;28;20020;-67
2021/06/27 08:20:35;;;;;;;27.00;3.58;;;;;;;;;;5089613;28;20520;-67
2021/06/27 08:23:02;;;;;;;18.20;3.88;;;;;;;;;;5090028;28;20034;-67
2021/06/27 08:25:28;;;;;;;13.60;3.25;;;;;;;;;;5092251;28;20012;-71
2021/06/27 08:27:54;;;;;;;10.68;3.85;;;;;;;;;;5088318;28;20040;-67
2021/06/27 08:30:20;;;;;;;14.55;4.13;;;;;;;;;;5092192;28;20055;-67
2021/06/27 08:32:47;;;;;;;13.98;4.28;;;;;;;;;;5090811;28;20106;-67
2021/06/27 08:35:14;;;;;;;25.75;3.50;;;;;;;;;;5092025;28;20024;-66
2021/06/27 08:37:41;;;;;;;23.73;5.53;;;;;;;;;;5092306;28;20042;-66
2021/06/27 08:40:07;;;;;;;16.83;4.05;;;;;;;;;;5092246;28;20507;-67
2021/06/27 08:42:34;;;;;;;17.88;4.32;;;;;;;;;;5090577;28;20024;-68
2021/06/27 08:45:00;;;;;;;9.30;4.18;;;;;;;;;;5090622;28;20024;-67
2021/06/27 08:47:26;;;;;;;13.63;4.22;;;;;;;;;;5090562;28;20464;-67
2021/06/27 08:49:52;;;;;;;12.70;4.07;;;;;;;;;;5092194;28;20073;-66
2021/06/27 08:52:19;;;;;;;28.63;4.93;;;;;;;;;;5088221;28;20096;-67
2021/06/27 08:54:47;;;;;;;9.55;4.38;;;;;;;;;;5090610;28;20376;-66
2021/06/27 08:57:14;;;;;;;13.02;3.58;;;;;;;;;;5092084;28;20086;-67
2021/06/27 08:59:40;;;;;;;12.63;3.90;;;;;;;;;;5092081;28;20027;-67
2021/06/27 09:02:08;;;;;;;9.77;4.32;;;;;;;;;;5090566;28;20027;-67
2021/06/27 09:04:38;;;;;;;10.63;4.40;;;;;;;;;;5091949;28;20027;-67
2021/06/27 09:07:23;;;;;;;18.92;4.60;;;;;;;;;;5091739;28;20396;-67
2021/06/27 09:09:49;;;;;;;26.45;5.03;;;;;;;;;;5091866;28;20035;-67
2021/06/27 09:12:15;;;;;;;25.17;4.90;;;;;;;;;;5091682;28;20026;-67
2021/06/27 09:14:43;;;;;;;22.70;4.45;;;;;;;;;;5085568;28;20389;-70
2021/06/27 09:17:09;;;;;;;12.00;4.32;;;;;;;;;;5074556;28;20028;-67
2021/06/27 09:19:53;;;;;;;16.05;5.10;;;;;;;;;;5070969;28;20423;-68
2021/06/27 09:22:29;;;;;;;21.30;4.70;;;;;;;;;;5074023;28;20024;-66
2021/06/27 09:25:16;;;;;;;12.73;3.75;;;;;;;;;;5071469;28;20059;-67
2021/06/27 09:27:43;;;;;;;7.68;3.65;;;;;;;;;;5087324;28;20119;-67
2021/06/27 09:30:27;;;;;;;10.65;3.75;;;;;;;;;;5091384;28;20027;-67
2021/06/27 09:32:57;;;;;;;5.60;3.50;;;;;;;;;;5089418;28;20035;-67
2021/06/27 09:35:52;;;;;;;6.97;3.58;;;;;;;;;;5091376;28;20078;-67
2021/06/27 09:38:38;;;;;;;27.95;5.00;;;;;;;;;;5072981;28;20029;-67
2021/06/27 09:41:08;;;;;;;26.17;4.90;;;;;;;;;;5090143;28;20035;-66
2021/06/27 09:43:35;;;;;;;26.08;4.90;;;;;;;;;;5091704;28;20023;-67
2021/06/27 09:46:10;;;;;;;20.20;4.53;;;;;;;;;;5089971;28;20416;-66
2021/06/27 09:48:47;;;;;;;21.92;4.93;;;;;;;;;;5089442;28;20030;-67
2021/06/27 09:51:15;;;;;;;12.82;4.50;;;;;;;;;;5090788;28;20065;-67
2021/06/27 09:53:41;;;;;;;9.18;4.20;;;;;;;;;;5089313;28;20024;-66
2021/06/27 09:56:08;;;;;;;10.57;3.90;;;;;;;;;;5092254;28;20019;-66
2021/06/27 09:58:34;;;;;;;10.38;3.83;;;;;;;;;;5094514;28;20031;-66
2021/06/27 10:01:00;;;;;;;8.10;4.38;;;;;;;;;;5094498;28;20042;-67
2021/06/27 10:03:43;;;;;;;9.07;4.60;;;;;;;;;;5093379;28;20380;-66
2021/06/27 10:06:09;;;;;;;11.18;4.20;;;;;;;;;;5094223;28;20052;-67
2021/06/27 10:08:36;;;;;;;9.30;4.65;;;;;;;;;;5093191;28;20502;-66
2021/06/27 10:11:18;;;;;;;7.10;4.30;;;;;;;;;;5092916;28;20460;-67
2021/06/27 10:13:48;;;;;;;11.80;4.72;;;;;;;;;;5092968;28;20578;-66
2021/06/27 10:16:23;;;;;;;6.60;4.13;;;;;;;;;;5094287;28;20038;-66
2021/06/27 10:18:50;;;;;;;6.03;4.00;;;;;;;;;;5094379;28;20387;-66
2021/06/27 10:21:16;;;;;;;7.13;3.80;;;;;;;;;;5094147;28;20089;-67
2021/06/27 10:23:42;;;;;;;4.97;3.47;;;;;;;;;;5092554;28;20040;-66
2021/06/27 10:26:08;;;;;;;7.80;4.03;;;;;;;;;;5092445;28;20028;-66
2021/06/27 10:28:35;;;;;;;6.32;3.95;;;;;;;;;;5093976;28;20031;-67
2021/06/27 10:31:01;;;;;;;5.40;3.38;;;;;;;;;;5093869;28;20016;-66
2021/06/27 10:33:27;;;;;;;5.95;4.05;;;;;;;;;;5093924;28;20020;-66
2021/06/27 10:35:54;;;;;;;5.00;3.40;;;;;;;;;;5093913;28;20176;-66
2021/06/27 10:38:22;;;;;;;6.45;3.60;;;;;;;;;;5092601;28;20023;-66
2021/06/27 10:40:52;;;;;;;6.20;4.30;;;;;;;;;;5093854;28;20031;-67
2021/06/27 10:43:18;;;;;;;5.95;3.50;;;;;;;;;;5092407;28;20020;-66
2021/06/27 10:45:47;;;;;;;7.50;3.85;;;;;;;;;;5093466;28;20052;-66
2021/06/27 10:48:32;;;;;;;8.40;3.50;;;;;;;;;;5093397;28;20034;-66
2021/06/27 10:50:58;;;;;;;5.45;3.67;;;;;;;;;;5093243;28;20017;-67
2021/06/27 10:53:24;;;;;;;24.98;5.35;;;;;;;;;;5092431;28;20032;-69
2021/06/27 10:55:58;;;;;;;13.77;3.70;;;;;;;;;;5091342;28;20016;-67
2021/06/27 10:58:35;;;;;;;15.13;4.25;;;;;;;;;;5093548;28;20055;-67
2021/06/27 11:01:05;;;;;;;9.82;3.22;;;;;;;;;;5093371;28;20024;-67
2021/06/27 11:03:35;;;;;;;15.23;4.28;;;;;;;;;;5093733;28;20031;-66
2021/06/27 11:06:02;;;;;;;9.57;4.18;;;;;;;;;;5092101;28;20028;-67
2021/06/27 11:08:33;;;;;;;7.18;3.47;;;;;;;;;;5093889;28;20028;-67
2021/06/27 11:11:01;;;;;;;6.07;3.42;;;;;;;;;;5093781;28;20354;-67
2021/06/27 11:13:27;;;;;;;13.70;4.05;;;;;;;;;;5093574;28;20024;-67
2021/06/27 11:15:53;;;;;;;6.70;3.60;;;;;;;;;;5092249;28;20107;-67
2021/06/27 11:18:28;;;;;;;6.30;4.15;;;;;;;;;;5093700;28;20417;-68
2021/06/27 11:20:55;;;;;;;8.20;4.78;;;;;;;;;;5093659;28;20047;-67
2021/06/27 11:23:40;;;;;;;13.00;4.22;;;;;;;;;;5093533;28;20012;-69
2021/06/27 11:26:06;;;;;;;7.63;4.72;;;;;;;;;;5093482;28;20092;-67
2021/06/27 11:28:35;;;;;;;7.22;4.22;;;;;;;;;;5093668;28;20052;-67
2021/06/27 11:31:20;;;;;;;6.55;4.32;;;;;;;;;;5093554;28;20472;-68
2021/06/27 11:33:46;;;;;;;8.55;4.63;;;;;;;;;;5091840;28;20542;-66
2021/06/27 11:36:25;;;;;;;9.20;4.32;;;;;;;;;;5091948;28;20020;-66
2021/06/27 11:38:51;;;;;;;17.02;4.60;;;;;;;;;;5091465;28;20027;-69
2021/06/27 11:41:21;;;;;;;8.27;4.85;;;;;;;;;;5092559;28;20036;-67
2021/06/27 11:43:53;;;;;;;8.68;4.43;;;;;;;;;;5093239;28;20027;-67
2021/06/27 11:46:19;;;;;;;;;;;;;;;;;;5092142;28;20044;-67
2021/06/27 11:48:45;;;;;;;10.98;3.80;;;;;;;;;;5093417;28;19912;-70
2021/06/27 11:53:47;;;;;;;10.50;4.05;;;;;;;;;;5355116;22;20483;-67
2021/06/27 11:56:15;;;;;;;6.78;4.22;;;;;;;;;;5052461;28;20036;-69
2021/06/27 11:58:41;;;;;;;6.35;4.65;;;;;;;;;;5067910;28;20042;-70
2021/06/27 12:01:08;;;;;;;8.90;4.82;;;;;;;;;;5069587;28;20029;-69
2021/06/27 12:03:35;;;;;;;8.38;4.03;;;;;;;;;;5067366;28;20032;-69
2021/06/27 12:06:03;;;;;;;10.48;4.45;;;;;;;;;;5069343;28;20067;-70
2021/06/27 12:08:29;;;;;;;6.88;4.70;;;;;;;;;;5072261;28;20579;-69
2021/06/27 12:10:56;;;;;;;6.50;4.47;;;;;;;;;;5053738;28;20025;-69
2021/06/27 12:13:23;;;;;;;12.27;4.35;;;;;;;;;;5071320;28;20056;-69
2021/06/27 12:15:54;;;;;;;9.48;4.25;;;;;;;;;;5071637;28;20468;-70
2021/06/27 12:18:22;;;;;;;6.38;4.47;;;;;;;;;;5059800;28;20112;-69
2021/06/27 12:20:57;;;;;;;7.78;4.03;;;;;;;;;;5071304;28;20037;-70
2021/06/27 12:23:30;;;;;;;6.13;4.18;;;;;;;;;;5071537;28;20020;-70
2021/06/27 12:25:59;;;;;;;7.00;4.00;;;;;;;;;;5071232;28;20091;-70
2021/06/27 12:28:29;;;;;;;8.60;4.00;;;;;;;;;;5071519;28;20028;-71
2021/06/27 12:31:00;;;;;;;11.63;4.18;;;;;;;;;;5070714;28;20027;-75
2021/06/27 12:33:27;;;;;;;14.63;3.95;;;;;;;;;;5070508;28;20476;-72
2021/06/27 12:36:03;;;;;;;6.88;4.40;;;;;;;;;;5070667;28;20020;-73
2021/06/27 12:38:30;;;;;;;7.45;4.75;;;;;;;;;;5070615;28;20082;-73
2021/06/27 12:40:57;;;;;;;15.05;5.28;;;;;;;;;;5079523;28;20023;-69
2021/06/27 12:43:26;;;;;;;10.63;4.28;;;;;;;;;;5091312;28;20111;-71
2021/06/27 12:46:12;;;;;;;8.00;3.85;;;;;;;;;;5077781;28;20493;-71
2021/06/27 12:48:40;;;;;;;7.78;4.32;;;;;;;;;;5050360;28;20052;-72
2021/06/27 12:51:19;;;;;;;10.85;4.05;;;;;;;;;;5071096;28;20029;-72
2021/06/27 12:53:55;;;;;;;9.63;4.18;;;;;;;;;;5074922;28;20110;-72
2021/06/27 12:56:21;;;;;;;10.15;3.67;;;;;;;;;;5071647;28;20533;-72
2021/06/27 12:58:56;;;;;;;6.80;3.38;;;;;;;;;;5071403;28;20082;-73
2021/06/27 13:01:23;;;;;;;10.60;4.45;;;;;;;;;;5058381;28;20433;-72
2021/06/27 13:03:58;;;;;;;10.98;4.40;;;;;;;;;;5071682;28;20017;-73
2021/06/27 13:06:25;;;;;;;27.33;3.55;;;;;;;;;;5053632;28;20503;-69
2021/06/27 13:08:51;;;;;;;21.77;4.30;;;;;;;;;;5071393;28;20548;-68
2021/06/27 13:11:17;;;;;;;13.55;3.53;;;;;;;;;;5070718;28;20013;-67
2021/06/27 13:13:43;;;;;;;8.27;3.92;;;;;;;;;;5070005;28;20039;-68
2021/06/27 13:16:14;;;;;;;13.63;3.95;;;;;;;;;;5071372;28;20025;-67
2021/06/27 13:18:41;;;;;;;18.38;3.33;;;;;;;;;;5052381;28;20495;-68
2021/06/27 13:21:17;;;;;;;12.63;2.85;;;;;;;;;;5071283;28;20024;-68
2021/06/27 13:23:43;;;;;;;11.15;3.55;;;;;;;;;;5071174;28;20025;-68
2021/06/27 13:26:11;;;;;;;9.50;2.95;;;;;;;;;;5071335;28;20104;-68
2021/06/27 13:28:43;;;;;;;9.50;2.83;;;;;;;;;;5071326;28;20518;-67
2021/06/27 13:31:28;;;;;;;6.97;2.70;;;;;;;;;;5075063;28;20024;-68
2021/06/27 13:33:55;;;;;;;6.93;2.55;;;;;;;;;;5075423;28;20016;-68
2021/06/27 13:36:32;;;;;;;16.10;2.40;;;;;;;;;;5075426;28;20032;-68
2021/06/27 13:38:59;;;;;;;6.53;2.38;;;;;;;;;;5057341;28;20423;-68
2021/06/27 13:41:27;;;;;;;5.82;2.72;;;;;;;;;;5075391;28;20020;-68
2021/06/27 13:43:54;;;;;;;6.15;2.78;;;;;;;;;;5075237;28;20021;-68
2021/06/27 13:46:20;;;;;;;7.00;2.35;;;;;;;;;;5075181;28;20028;-67
2021/06/27 13:48:47;;;;;;;5.53;2.33;;;;;;;;;;5075177;28;20059;-68
2021/06/27 13:51:13;;;;;;;5.57;2.47;;;;;;;;;;5074953;28;20108;-68
2021/06/27 13:53:39;;;;;;;6.10;2.55;;;;;;;;;;5068450;28;20037;-67
2021/06/27 13:56:19;;;;;;;6.18;2.10;;;;;;;;;;5053606;28;20013;-67
2021/06/27 13:58:45;;;;;;;4.50;2.20;;;;;;;;;;5055195;28;20496;-68
2021/06/27 14:01:12;;;;;;;3.92;1.95;;;;;;;;;;5054840;28;20307;-68
2021/06/27 14:03:38;;;;;;;3.47;1.77;;;;;;;;;;5054703;28;20049;-67
2021/06/27 14:06:04;;;;;;;4.20;2.20;;;;;;;;;;5054645;28;20100;-67
2021/06/27 14:08:30;;;;;;;3.85;2.25;;;;;;;;;;5054578;28;20036;-67
2021/06/27 14:11:01;;;;;;;3.72;2.13;;;;;;;;;;5053420;28;20099;-67
2021/06/27 14:13:36;;;;;;;4.10;2.15;;;;;;;;;;5054588;28;20473;-69
2021/06/27 14:16:02;;;;;;;3.70;2.20;;;;;;;;;;5054440;28;20040;-68
2021/06/27 14:18:28;;;;;;;4.93;1.98;;;;;;;;;;5054432;28;20048;-68
2021/06/27 14:20:55;;;;;;;3.97;1.70;;;;;;;;;;5054616;28;20099;-68
2021/06/27 14:23:21;;;;;;;3.75;1.95;;;;;;;;;;5053263;28;20025;-67
2021/06/27 14:25:48;;;;;;;4.30;1.80;;;;;;;;;;5053947;28;20101;-66
2021/06/27 14:28:14;;;;;;;4.25;1.98;;;;;;;;;;5054139;28;20029;-68
2021/06/27 14:30:41;;;;;;;3.28;1.90;;;;;;;;;;5054182;28;20043;-67
2021/06/27 14:33:07;;;;;;;5.30;2.03;;;;;;;;;;5053999;28;20031;-67
2021/06/27 14:35:33;;;;;;;3.33;1.65;;;;;;;;;;5054257;28;20032;-68
2021/06/27 14:37:59;;;;;;;3.45;1.88;;;;;;;;;;5054226;28;20029;-68
2021/06/27 14:40:25;;;;;;;4.65;2.03;;;;;;;;;;5053877;28;20024;-68
2021/06/27 14:42:51;;;;;;;4.25;1.85;;;;;;;;;;5053534;28;20025;-67
2021/06/27 14:45:18;;;;;;;3.55;1.95;;;;;;;;;;5054199;28;20090;-68